Time;durP1;ratioP1;P1;durP2;ratioP2;P2;SDS_P1;SDS_P2;PMS_P1;PMS_P2;Temp;Humidity;BMP_temperature;BMP_pressure;BME280_temperature;BME280_humidity;BME280_pressure;Samples;Min_cycle;Max_cycle;Signal;HPM_P1;HPM_P2
2022/04/19 00:01:57;;;;;;;6.72;4.18;;;;;;;;;;4994969;28;20030;-74
2022/04/19 00:04:22;;;;;;;8.65;5.15;;;;;;;;;;4977123;28;20478;-74
2022/04/19 00:06:48;;;;;;;12.00;6.18;;;;;;;;;;5009408;28;20544;-74
2022/04/19 00:09:13;;;;;;;7.95;4.70;;;;;;;;;;4977729;28;20022;-74
2022/04/19 00:11:39;;;;;;;7.72;4.70;;;;;;;;;;4994571;28;20036;-74
2022/04/19 00:14:07;;;;;;;12.27;6.82;;;;;;;;;;4994626;28;20355;-74
2022/04/19 00:16:34;;;;;;;18.83;9.82;;;;;;;;;;4994942;28;20031;-74
2022/04/19 00:18:59;;;;;;;22.67;11.35;;;;;;;;;;4977504;28;20450;-72
2022/04/19 00:21:24;;;;;;;21.98;10.82;;;;;;;;;;4977116;28;20042;-73
2022/04/19 00:23:50;;;;;;;24.15;11.25;;;;;;;;;;4994594;28;20093;-73
2022/04/19 00:26:15;;;;;;;21.55;11.00;;;;;;;;;;4994581;28;20030;-73
2022/04/19 00:28:41;;;;;;;22.58;11.82;;;;;;;;;;4976909;28;20023;-73
2022/04/19 00:31:07;;;;;;;22.80;11.63;;;;;;;;;;4994343;28;20106;-82
2022/04/19 00:33:33;;;;;;;24.33;11.77;;;;;;;;;;4961216;28;20022;-80
2022/04/19 00:35:59;;;;;;;24.15;11.85;;;;;;;;;;4976605;28;20118;-80
2022/04/19 00:38:24;;;;;;;23.48;11.45;;;;;;;;;;4976680;28;20475;-80
2022/04/19 00:40:50;;;;;;;23.90;11.32;;;;;;;;;;4993803;28;20046;-81
2022/04/19 00:43:37;;;;;;;21.90;11.02;;;;;;;;;;4994589;28;20026;-81
2022/04/19 00:46:02;;;;;;;22.08;11.07;;;;;;;;;;4996341;28;20026;-75
2022/04/19 00:48:28;;;;;;;18.52;9.48;;;;;;;;;;4980556;28;20105;-74
2022/04/19 00:50:54;;;;;;;20.10;10.80;;;;;;;;;;4998333;28;20062;-74
2022/04/19 00:53:21;;;;;;;22.45;11.25;;;;;;;;;;4997919;28;20022;-75
2022/04/19 00:55:47;;;;;;;20.85;10.77;;;;;;;;;;4980622;28;20054;-77
2022/04/19 00:58:13;;;;;;;21.10;10.50;;;;;;;;;;4981019;28;20084;-77
2022/04/19 01:00:43;;;;;;;18.60;10.13;;;;;;;;;;4980250;28;20034;-77
2022/04/19 01:03:12;;;;;;;;;;;;;;;;;;4981486;28;20121;-78
2022/04/19 01:05:37;;;;;;;21.23;10.15;;;;;;;;;;4980221;28;19953;-77
2022/04/19 01:08:05;;;;;;;21.25;11.10;;;;;;;;;;4980429;28;20481;-80
2022/04/19 01:10:34;;;;;;;22.38;11.10;;;;;;;;;;5013195;28;20121;-74
2022/04/19 01:13:18;;;;;;;21.17;10.02;;;;;;;;;;5012597;28;20030;-75
2022/04/19 01:15:50;;;;;;;19.20;10.27;;;;;;;;;;4979984;28;20022;-78
2022/04/19 01:18:20;;;;;;;18.88;10.52;;;;;;;;;;5012524;28;20040;-82
2022/04/19 01:20:52;;;;;;;18.10;9.73;;;;;;;;;;4980524;28;20141;-81
2022/04/19 01:23:20;;;;;;;21.17;10.43;;;;;;;;;;5012683;28;20034;-86
2022/04/19 01:25:45;;;;;;;22.05;10.82;;;;;;;;;;5012602;28;20545;-85
2022/04/19 01:31:17;;;;;;;23.25;10.82;;;;;;;;;;4997624;28;20120;-85
2022/04/19 01:33:46;;;;;;;19.08;10.10;;;;;;;;;;4980052;28;20105;-86
2022/04/19 01:36:13;;;;;;;17.25;9.25;;;;;;;;;;4997625;28;20068;-75
2022/04/19 01:38:42;;;;;;;15.48;9.13;;;;;;;;;;4979914;28;20537;-73
2022/04/19 01:41:08;;;;;;;17.25;8.70;;;;;;;;;;4979449;28;20142;-72
2022/04/19 01:43:44;;;;;;;18.63;8.75;;;;;;;;;;4997551;28;20362;-73
2022/04/19 01:46:11;;;;;;;18.33;9.65;;;;;;;;;;4980189;28;20386;-74
2022/04/19 01:48:36;;;;;;;13.70;7.75;;;;;;;;;;5012130;28;20026;-74
2022/04/19 01:51:02;;;;;;;16.92;8.95;;;;;;;;;;4979965;28;20038;-73
2022/04/19 01:53:28;;;;;;;16.88;9.18;;;;;;;;;;4963695;28;20077;-73
2022/04/19 01:55:55;;;;;;;10.35;6.88;;;;;;;;;;4997305;28;20474;-74
2022/04/19 01:58:56;;;;;;;14.90;7.53;;;;;;;;;;4955490;29;20034;-75
2022/04/19 02:01:42;;;;;;;13.18;6.90;;;;;;;;;;4994061;28;20077;-74
2022/04/19 02:04:10;;;;;;;15.00;7.75;;;;;;;;;;5011915;28;20022;-82
2022/04/19 02:06:35;;;;;;;18.27;9.68;;;;;;;;;;4963170;28;20018;-75
2022/04/19 02:09:03;;;;;;;12.05;7.43;;;;;;;;;;4979426;28;20037;-75
2022/04/19 02:11:29;;;;;;;11.80;7.22;;;;;;;;;;4995360;28;20121;-75
2022/04/19 02:14:06;;;;;;;12.52;7.05;;;;;;;;;;4996812;28;20102;-73
2022/04/19 02:16:37;;;;;;;13.13;6.43;;;;;;;;;;4963730;28;20034;-73
2022/04/19 02:19:04;;;;;;;13.20;7.40;;;;;;;;;;4979080;28;20621;-73
2022/04/19 02:21:32;;;;;;;12.80;7.47;;;;;;;;;;4996788;28;20022;-76
2022/04/19 02:23:58;;;;;;;14.55;7.93;;;;;;;;;;4978956;28;20117;-75
2022/04/19 02:26:25;;;;;;;13.63;7.75;;;;;;;;;;4996198;28;20042;-75
2022/04/19 02:28:53;;;;;;;14.90;7.73;;;;;;;;;;4978711;28;20034;-74
2022/04/19 02:31:32;;;;;;;14.80;8.27;;;;;;;;;;4980971;28;20208;-74
2022/04/19 02:33:58;;;;;;;16.85;9.07;;;;;;;;;;4978647;28;20022;-74
2022/04/19 02:36:27;;;;;;;15.13;8.07;;;;;;;;;;4978914;28;20030;-74
2022/04/19 02:38:53;;;;;;;13.45;7.53;;;;;;;;;;4996480;28;20030;-74
2022/04/19 02:41:19;;;;;;;12.38;7.40;;;;;;;;;;4978329;28;20133;-75
2022/04/19 02:43:49;;;;;;;16.70;8.25;;;;;;;;;;5011754;28;20567;-77
2022/04/19 02:46:15;;;;;;;16.30;8.38;;;;;;;;;;4978621;28;20069;-84
2022/04/19 02:49:05;;;;;;;11.77;6.35;;;;;;;;;;4978587;28;20473;-83
2022/04/19 02:51:34;;;;;;;11.93;5.70;;;;;;;;;;4979149;28;20045;-77
2022/04/19 02:53:59;;;;;;;11.90;6.30;;;;;;;;;;4995708;28;20462;-76
2022/04/19 02:56:26;;;;;;;13.95;7.18;;;;;;;;;;4978319;28;20113;-76
2022/04/19 02:58:51;;;;;;;13.63;6.88;;;;;;;;;;4978124;28;20025;-78
2022/04/19 03:01:18;;;;;;;11.68;6.85;;;;;;;;;;4978683;28;20030;-78
2022/04/19 03:03:46;;;;;;;14.25;6.72;;;;;;;;;;5010638;28;20026;-78
2022/04/19 03:06:14;;;;;;;12.68;6.18;;;;;;;;;;4978286;28;20478;-72
2022/04/19 03:08:40;;;;;;;15.13;8.40;;;;;;;;;;4977966;28;20038;-72
2022/04/19 03:11:05;;;;;;;16.67;8.15;;;;;;;;;;4995319;28;20042;-72
2022/04/19 03:13:35;;;;;;;12.30;7.03;;;;;;;;;;4995283;28;20014;-72
2022/04/19 03:16:01;;;;;;;9.57;5.32;;;;;;;;;;4978570;28;20037;-72
2022/04/19 03:18:30;;;;;;;9.00;4.82;;;;;;;;;;4962030;28;20520;-73
2022/04/19 03:20:57;;;;;;;7.47;5.18;;;;;;;;;;4978041;28;20030;-72
2022/04/19 03:28:54;;;;;;;8.68;5.20;;;;;;;;;;4978109;28;20076;-72
2022/04/19 03:31:22;;;;;;;8.45;5.00;;;;;;;;;;4977511;28;20458;-73
2022/04/19 03:33:52;;;;;;;8.80;5.10;;;;;;;;;;4978192;28;20026;-74
2022/04/19 03:36:22;;;;;;;7.60;4.78;;;;;;;;;;5010610;28;20027;-74
2022/04/19 03:39:11;;;;;;;6.17;4.23;;;;;;;;;;5009976;28;20025;-81
2022/04/19 03:41:37;;;;;;;6.63;4.57;;;;;;;;;;4994858;28;20054;-74
2022/04/19 03:44:05;;;;;;;6.95;4.53;;;;;;;;;;4978090;28;20030;-74
2022/04/19 03:46:30;;;;;;;6.43;4.50;;;;;;;;;;4977399;28;20027;-74
2022/04/19 03:48:56;;;;;;;6.72;4.22;;;;;;;;;;4977330;28;20427;-75
2022/04/19 03:51:21;;;;;;;6.40;4.07;;;;;;;;;;4977641;28;20524;-74
2022/04/19 03:53:46;;;;;;;7.53;4.55;;;;;;;;;;4977813;28;20033;-80
2022/04/19 03:56:16;;;;;;;6.43;4.22;;;;;;;;;;4977156;28;20042;-79
2022/04/19 03:58:42;;;;;;;5.35;3.75;;;;;;;;;;4977262;28;20466;-77
2022/04/19 04:01:12;;;;;;;5.68;4.10;;;;;;;;;;4977762;28;20034;-77
2022/04/19 04:03:38;;;;;;;5.18;4.05;;;;;;;;;;4977563;28;20041;-80
2022/04/19 04:06:03;;;;;;;5.45;4.00;;;;;;;;;;4977006;28;20026;-78
2022/04/19 04:08:29;;;;;;;9.82;4.22;;;;;;;;;;4976835;28;20029;-83
2022/04/19 04:10:55;;;;;;;8.63;4.40;;;;;;;;;;4977126;28;20026;-77
2022/04/19 04:13:25;;;;;;;6.53;5.20;;;;;;;;;;4977045;28;20030;-81
2022/04/19 04:15:51;;;;;;;7.45;4.80;;;;;;;;;;4976840;28;20072;-81
2022/04/19 04:18:19;;;;;;;5.43;4.35;;;;;;;;;;4976749;28;20085;-84
2022/04/19 04:20:44;;;;;;;5.68;3.85;;;;;;;;;;4976437;28;20027;-76
2022/04/19 04:23:10;;;;;;;4.82;3.28;;;;;;;;;;4976792;28;20046;-78
2022/04/19 04:25:35;;;;;;;4.65;3.38;;;;;;;;;;4976890;28;20061;-78
2022/04/19 04:28:01;;;;;;;3.55;3.10;;;;;;;;;;4994048;28;20026;-78
2022/04/19 04:30:46;;;;;;;4.95;3.60;;;;;;;;;;4994119;28;20430;-77
2022/04/19 04:33:13;;;;;;;5.55;3.13;;;;;;;;;;4976110;28;20117;-77
2022/04/19 04:35:39;;;;;;;3.53;3.22;;;;;;;;;;4976336;28;20025;-77
2022/04/19 04:38:04;;;;;;;6.22;3.40;;;;;;;;;;4976853;28;20030;-77
2022/04/19 04:40:32;;;;;;;7.13;3.80;;;;;;;;;;4976840;28;20034;-78
2022/04/19 04:43:02;;;;;;;6.65;4.30;;;;;;;;;;5007511;28;20061;-78
2022/04/19 04:45:28;;;;;;;4.07;3.55;;;;;;;;;;4976522;28;20033;-78
2022/04/19 04:50:38;;;;;;;3.80;2.97;;;;;;;;;;4976684;28;20039;-78
2022/04/19 04:53:06;;;;;;;4.43;3.33;;;;;;;;;;4976325;28;20022;-81
2022/04/19 04:55:33;;;;;;;8.60;5.50;;;;;;;;;;4976155;28;20050;-79
2022/04/19 04:58:01;;;;;;;9.55;5.90;;;;;;;;;;4976240;28;20486;-80
2022/04/19 05:00:28;;;;;;;7.13;4.53;;;;;;;;;;5008370;28;20034;-79
2022/04/19 05:02:59;;;;;;;5.63;4.32;;;;;;;;;;5009217;28;20037;-77
2022/04/19 05:05:25;;;;;;;7.45;5.07;;;;;;;;;;4976627;28;20038;-79
2022/04/19 05:07:55;;;;;;;5.60;4.15;;;;;;;;;;4994148;28;20030;-79
2022/04/19 05:10:22;;;;;;;7.57;4.50;;;;;;;;;;4976671;28;20027;-76
2022/04/19 05:12:47;;;;;;;7.63;5.63;;;;;;;;;;4976211;28;20109;-76
2022/04/19 05:15:20;;;;;;;7.00;5.53;;;;;;;;;;4975782;28;20033;-76
2022/04/19 05:17:46;;;;;;;10.25;5.97;;;;;;;;;;4975546;28;20026;-76
2022/04/19 05:20:12;;;;;;;10.13;6.15;;;;;;;;;;4975207;28;20019;-76
2022/04/19 05:22:39;;;;;;;11.10;5.97;;;;;;;;;;4975518;28;20022;-76
2022/04/19 05:25:05;;;;;;;8.43;5.72;;;;;;;;;;4975186;28;20105;-76
2022/04/19 05:27:31;;;;;;;26.50;23.10;;;;;;;;;;4975155;28;20034;-76
2022/04/19 05:29:57;;;;;;;18.08;6.65;;;;;;;;;;4974993;28;20019;-76
2022/04/19 05:32:22;;;;;;;7.78;5.22;;;;;;;;;;4975662;28;20470;-76
2022/04/19 05:34:49;;;;;;;10.88;7.95;;;;;;;;;;4978629;28;20042;-76
2022/04/19 05:37:16;;;;;;;8.00;5.70;;;;;;;;;;5011037;28;20371;-76
2022/04/19 05:39:41;;;;;;;25.00;19.15;;;;;;;;;;4978554;28;20022;-76
2022/04/19 05:42:07;;;;;;;26.38;19.38;;;;;;;;;;4978444;28;20057;-76
2022/04/19 05:44:33;;;;;;;11.07;6.68;;;;;;;;;;4978432;28;20084;-75
2022/04/19 05:46:58;;;;;;;7.82;4.82;;;;;;;;;;4978422;28;20085;-75
2022/04/19 05:49:23;;;;;;;7.40;5.57;;;;;;;;;;4995863;28;20360;-76
2022/04/19 05:51:51;;;;;;;7.07;5.00;;;;;;;;;;4978490;28;20037;-76
2022/04/19 05:54:16;;;;;;;10.85;5.80;;;;;;;;;;4978215;28;20014;-76
2022/04/19 05:56:42;;;;;;;8.70;5.35;;;;;;;;;;4978257;28;20030;-76
2022/04/19 05:59:08;;;;;;;10.25;6.10;;;;;;;;;;4978180;28;20018;-76
2022/04/19 06:07:02;;;;;;;12.77;7.50;;;;;;;;;;4978053;28;20037;-76
2022/04/19 06:09:27;;;;;;;13.77;7.80;;;;;;;;;;4995371;28;20019;-76
2022/04/19 06:11:53;;;;;;;16.23;8.15;;;;;;;;;;4995368;28;20077;-76
2022/04/19 06:14:18;;;;;;;12.02;6.93;;;;;;;;;;4978005;28;20497;-75
2022/04/19 06:16:44;;;;;;;13.05;7.28;;;;;;;;;;4961801;28;20371;-76
2022/04/19 06:19:10;;;;;;;13.32;7.15;;;;;;;;;;5010400;28;20018;-76
2022/04/19 06:21:35;;;;;;;20.38;9.73;;;;;;;;;;4977727;28;20042;-76
2022/04/19 06:24:04;;;;;;;13.80;7.10;;;;;;;;;;4977494;28;20022;-75
2022/04/19 06:26:29;;;;;;;10.70;6.60;;;;;;;;;;4977684;28;20490;-75
2022/04/19 06:28:59;;;;;;;12.57;6.88;;;;;;;;;;4977616;28;20474;-75
2022/04/19 06:31:35;;;;;;;12.70;6.82;;;;;;;;;;4994969;28;20129;-75
2022/04/19 06:34:07;;;;;;;11.02;6.28;;;;;;;;;;4962155;28;20034;-75
2022/04/19 06:36:50;;;;;;;10.85;5.85;;;;;;;;;;4977886;28;20030;-75
2022/04/19 06:39:16;;;;;;;10.00;5.70;;;;;;;;;;4977388;28;20394;-73
2022/04/19 06:41:42;;;;;;;12.23;6.90;;;;;;;;;;4977246;28;20755;-74
2022/04/19 06:44:08;;;;;;;12.43;7.60;;;;;;;;;;5009638;28;20045;-74
2022/04/19 06:46:37;;;;;;;11.57;6.78;;;;;;;;;;4977386;28;20029;-74
2022/04/19 06:49:07;;;;;;;12.70;6.50;;;;;;;;;;4977337;28;20030;-74
2022/04/19 06:51:33;;;;;;;11.98;7.22;;;;;;;;;;4977246;28;20034;-74
2022/04/19 06:54:01;;;;;;;16.95;9.13;;;;;;;;;;4977292;28;20520;-73
2022/04/19 06:56:33;;;;;;;14.70;8.10;;;;;;;;;;4977186;28;20029;-73
2022/04/19 06:58:59;;;;;;;18.95;10.93;;;;;;;;;;4977242;28;20034;-73
2022/04/19 07:01:25;;;;;;;17.75;10.48;;;;;;;;;;4994854;28;20457;-74
2022/04/19 07:04:11;;;;;;;20.88;11.27;;;;;;;;;;4994072;28;20445;-74
2022/04/19 07:06:46;;;;;;;20.88;11.88;;;;;;;;;;4995159;28;20409;-74
2022/04/19 07:09:12;;;;;;;23.02;13.07;;;;;;;;;;4977954;28;20034;-74
2022/04/19 07:11:38;;;;;;;24.02;12.27;;;;;;;;;;4978043;28;20105;-74
2022/04/19 07:14:11;;;;;;;18.38;10.90;;;;;;;;;;4977766;28;20493;-74
2022/04/19 07:16:59;;;;;;;20.65;11.45;;;;;;;;;;4994852;28;20045;-74
2022/04/19 07:26:37;;;;;;;18.50;11.45;;;;;;;;;;5010480;28;20109;-74
2022/04/19 07:27:51;;;;;;;19.95;11.70;;;;;;;;;;4976865;28;20062;-74
2022/04/19 07:30:22;;;;;;;21.42;11.88;;;;;;;;;;4977150;28;20053;-74
2022/04/19 07:32:48;;;;;;;32.53;14.25;;;;;;;;;;5009177;28;20113;-74
2022/04/19 07:35:18;;;;;;;22.77;13.32;;;;;;;;;;4975418;28;20045;-74
2022/04/19 07:37:44;;;;;;;15.02;9.27;;;;;;;;;;4975396;28;20556;-74
2022/04/19 07:40:12;;;;;;;19.10;11.55;;;;;;;;;;4975292;28;20481;-74
2022/04/19 07:42:38;;;;;;;17.45;11.07;;;;;;;;;;4975145;28;20046;-74
2022/04/19 07:45:04;;;;;;;13.57;8.70;;;;;;;;;;5007806;28;20030;-74
2022/04/19 07:47:31;;;;;;;18.15;10.73;;;;;;;;;;4975125;28;20037;-74
2022/04/19 07:49:57;;;;;;;17.50;10.95;;;;;;;;;;4975092;28;20045;-74
2022/04/19 07:52:22;;;;;;;19.85;9.98;;;;;;;;;;4976493;28;20473;-74
2022/04/19 07:54:48;;;;;;;18.40;10.98;;;;;;;;;;4977036;28;20041;-74
2022/04/19 07:57:17;;;;;;;16.40;11.05;;;;;;;;;;4976920;28;20030;-74
2022/04/19 07:59:42;;;;;;;16.15;10.88;;;;;;;;;;5009622;28;20037;-74
2022/04/19 08:02:08;;;;;;;16.23;10.65;;;;;;;;;;4977331;28;20065;-74
2022/04/19 08:04:33;;;;;;;14.63;9.52;;;;;;;;;;4994763;28;20065;-74
2022/04/19 08:07:00;;;;;;;15.27;10.07;;;;;;;;;;4994453;28;20035;-74
2022/04/19 08:09:26;;;;;;;16.33;9.93;;;;;;;;;;4977531;28;20022;-74
2022/04/19 08:11:52;;;;;;;14.20;8.55;;;;;;;;;;4977136;28;20540;-74
2022/04/19 08:14:18;;;;;;;13.70;8.98;;;;;;;;;;5009436;28;20018;-74
2022/04/19 08:16:43;;;;;;;14.43;9.65;;;;;;;;;;4976856;28;20029;-74
2022/04/19 08:19:09;;;;;;;15.65;9.88;;;;;;;;;;4976858;28;20470;-74
2022/04/19 08:21:35;;;;;;;18.38;11.18;;;;;;;;;;4976954;28;20141;-74
2022/04/19 08:24:02;;;;;;;14.55;9.82;;;;;;;;;;4976816;28;20049;-74
2022/04/19 08:26:28;;;;;;;16.17;9.55;;;;;;;;;;4976814;28;20117;-74
2022/04/19 08:28:54;;;;;;;14.38;9.18;;;;;;;;;;4976743;28;20101;-74
2022/04/19 08:31:20;;;;;;;14.05;10.07;;;;;;;;;;4976697;28;20228;-74
2022/04/19 08:33:46;;;;;;;12.45;9.90;;;;;;;;;;4976964;28;20049;-74
2022/04/19 08:36:16;;;;;;;15.60;10.32;;;;;;;;;;4976713;28;20030;-74
2022/04/19 08:38:42;;;;;;;14.25;10.00;;;;;;;;;;4976686;28;20034;-74
2022/04/19 08:41:07;;;;;;;14.10;10.10;;;;;;;;;;4976523;28;20045;-74
2022/04/19 08:43:36;;;;;;;12.70;9.32;;;;;;;;;;4976613;28;20036;-74
2022/04/19 08:46:02;;;;;;;11.57;7.85;;;;;;;;;;4994329;28;20018;-74
2022/04/19 08:48:27;;;;;;;10.15;8.05;;;;;;;;;;4994002;28;20042;-74
2022/04/19 08:50:56;;;;;;;13.75;10.05;;;;;;;;;;4994246;28;20031;-74
2022/04/19 08:58:49;;;;;;;14.60;11.90;;;;;;;;;;4993951;28;20026;-74
2022/04/19 09:01:15;;;;;;;13.87;10.87;;;;;;;;;;4993938;28;20022;-74
2022/04/19 09:03:41;;;;;;;11.27;10.15;;;;;;;;;;4993893;28;20332;-74
2022/04/19 09:17:05;;;;;;;10.98;9.65;;;;;;;;;;5123980;27;20392;-72
2022/04/19 09:19:30;;;;;;;10.00;8.75;;;;;;;;;;5088974;28;20036;-72
2022/04/19 09:21:56;;;;;;;10.95;9.07;;;;;;;;;;5090651;28;20429;-72
2022/04/19 09:24:22;;;;;;;11.00;9.23;;;;;;;;;;5090544;28;20126;-73
2022/04/19 09:26:48;;;;;;;10.38;8.80;;;;;;;;;;5089308;28;20091;-73
2022/04/19 09:29:27;;;;;;;10.05;9.07;;;;;;;;;;5089223;28;20436;-73
2022/04/19 09:31:53;;;;;;;10.80;9.70;;;;;;;;;;5090341;28;20104;-73
2022/04/19 09:34:23;;;;;;;10.18;9.10;;;;;;;;;;5090198;28;20029;-73
2022/04/19 09:36:53;;;;;;;10.73;9.48;;;;;;;;;;5090433;28;20040;-73
2022/04/19 09:39:24;;;;;;;12.00;10.40;;;;;;;;;;5089126;28;20012;-73
2022/04/19 09:41:58;;;;;;;25.35;20.98;;;;;;;;;;5090447;28;20086;-73
2022/04/19 09:44:24;;;;;;;18.77;16.50;;;;;;;;;;5090172;28;20032;-73
2022/04/19 09:47:06;;;;;;;18.42;15.38;;;;;;;;;;5090127;28;20524;-72
2022/04/19 09:49:44;;;;;;;17.92;13.60;;;;;;;;;;5090139;28;20028;-72
2022/04/19 09:52:14;;;;;;;71.47;48.15;;;;;;;;;;5090145;28;20032;-72
2022/04/19 09:54:40;;;;;;;73.22;38.28;;;;;;;;;;5090185;28;20409;-72
2022/04/19 09:57:06;;;;;;;77.80;52.22;;;;;;;;;;5071893;28;20115;-72
2022/04/19 09:59:33;;;;;;;64.95;38.28;;;;;;;;;;5089948;28;20024;-72
2022/04/19 10:10:11;;;;;;;20.83;17.77;;;;;;;;;;5088741;28;20526;-72
2022/04/19 10:12:37;;;;;;;14.48;11.98;;;;;;;;;;5088745;28;20120;-72
2022/04/19 10:15:04;;;;;;;15.00;11.82;;;;;;;;;;5087261;28;20076;-71
2022/04/19 10:17:31;;;;;;;16.15;13.95;;;;;;;;;;5077093;28;20033;-72
2022/04/19 10:19:59;;;;;;;13.85;10.45;;;;;;;;;;5075042;28;20032;-72
2022/04/19 10:22:26;;;;;;;13.75;9.32;;;;;;;;;;5075072;28;20115;-72
2022/04/19 10:24:52;;;;;;;12.77;10.95;;;;;;;;;;5074934;28;20028;-72
2022/04/19 10:27:18;;;;;;;11.05;9.50;;;;;;;;;;5073645;28;20031;-72
2022/04/19 10:29:43;;;;;;;46.38;26.77;;;;;;;;;;5074928;28;20020;-72
2022/04/19 10:32:10;;;;;;;36.38;21.00;;;;;;;;;;5074845;28;20108;-72
2022/04/19 10:34:37;;;;;;;30.67;19.10;;;;;;;;;;5074885;28;20016;-72
2022/04/19 10:37:11;;;;;;;21.65;15.15;;;;;;;;;;5074699;28;20081;-72
2022/04/19 10:39:43;;;;;;;8.82;7.70;;;;;;;;;;5074688;28;20036;-72
2022/04/19 10:42:24;;;;;;;8.23;7.53;;;;;;;;;;5074748;28;20125;-72
2022/04/19 10:44:50;;;;;;;17.92;16.25;;;;;;;;;;5056603;28;20471;-72
2022/04/19 10:47:20;;;;;;;13.35;12.00;;;;;;;;;;5074574;28;20036;-72
2022/04/19 10:49:56;;;;;;;36.88;26.95;;;;;;;;;;5074544;28;20364;-72
2022/04/19 10:52:38;;;;;;;15.25;10.27;;;;;;;;;;5073212;28;20035;-72
2022/04/19 10:55:06;;;;;;;45.80;29.98;;;;;;;;;;5074491;28;20107;-72
2022/04/19 11:00:27;;;;;;;25.00;19.15;;;;;;;;;;5074348;28;20228;-72
2022/04/19 11:03:00;;;;;;;36.30;25.00;;;;;;;;;;5074365;28;20052;-72
2022/04/19 11:05:41;;;;;;;9.25;8.00;;;;;;;;;;5072965;28;20058;-72
2022/04/19 11:08:24;;;;;;;11.55;10.35;;;;;;;;;;5073012;28;20033;-72
2022/04/19 11:10:56;;;;;;;12.73;7.82;;;;;;;;;;5073014;28;20532;-72
2022/04/19 11:13:22;;;;;;;12.73;8.00;;;;;;;;;;5073215;28;20449;-72
2022/04/19 11:16:00;;;;;;;13.88;8.68;;;;;;;;;;5073868;28;20053;-72
2022/04/19 11:18:29;;;;;;;11.70;7.85;;;;;;;;;;5072804;28;20028;-72
2022/04/19 11:20:58;;;;;;;12.00;10.45;;;;;;;;;;5073931;28;20029;-73
2022/04/19 11:23:25;;;;;;;12.23;9.73;;;;;;;;;;5073984;28;20039;-73
2022/04/19 11:25:51;;;;;;;9.85;8.55;;;;;;;;;;5073829;28;20021;-73
2022/04/19 11:28:16;;;;;;;10.50;7.97;;;;;;;;;;5073209;28;20024;-73
2022/04/19 11:31:04;;;;;;;7.63;6.82;;;;;;;;;;5072557;28;20477;-73
2022/04/19 11:33:34;;;;;;;8.30;7.18;;;;;;;;;;5073480;28;20028;-73
2022/04/19 11:36:01;;;;;;;6.97;6.30;;;;;;;;;;5072446;28;20029;-73
2022/04/19 11:38:27;;;;;;;8.00;5.85;;;;;;;;;;5073609;28;20085;-73
2022/04/19 11:49:06;;;;;;;6.63;6.03;;;;;;;;;;5073339;28;20029;-73
2022/04/19 11:51:35;;;;;;;7.75;6.97;;;;;;;;;;5072118;28;20021;-73
2022/04/19 11:54:01;;;;;;;7.45;6.28;;;;;;;;;;5073267;28;20060;-73
2022/04/19 11:56:26;;;;;;;7.18;6.50;;;;;;;;;;5073289;28;20060;-73
2022/04/19 11:58:52;;;;;;;6.93;6.18;;;;;;;;;;5073181;28;20054;-73
2022/04/19 12:01:18;;;;;;;13.02;10.23;;;;;;;;;;5073145;28;20027;-73
2022/04/19 12:03:43;;;;;;;8.02;7.30;;;;;;;;;;5073056;28;20033;-73
2022/04/19 12:06:16;;;;;;;7.97;7.18;;;;;;;;;;5073227;28;20071;-73
2022/04/19 12:08:42;;;;;;;7.13;6.35;;;;;;;;;;5072898;28;20029;-73
2022/04/19 12:11:16;;;;;;;7.90;7.10;;;;;;;;;;5072839;28;20066;-73
2022/04/19 12:13:46;;;;;;;11.40;8.25;;;;;;;;;;5072866;28;20029;-73
2022/04/19 12:16:29;;;;;;;6.38;5.88;;;;;;;;;;5071380;28;20512;-73
2022/04/19 12:18:56;;;;;;;12.23;9.30;;;;;;;;;;5072796;28;20028;-73
2022/04/19 12:21:38;;;;;;;9.70;7.63;;;;;;;;;;5072706;28;20380;-73
2022/04/19 12:24:22;;;;;;;8.70;7.93;;;;;;;;;;5071387;28;20121;-73
2022/04/19 12:27:03;;;;;;;10.65;8.68;;;;;;;;;;5071388;28;20036;-73
2022/04/19 12:29:29;;;;;;;23.38;18.67;;;;;;;;;;5071373;28;20032;-73
2022/04/19 12:31:58;;;;;;;7.57;6.53;;;;;;;;;;5071326;28;20017;-73
2022/04/19 12:34:33;;;;;;;10.45;8.90;;;;;;;;;;5072594;28;20114;-73
2022/04/19 12:37:06;;;;;;;7.35;5.70;;;;;;;;;;5072565;28;20033;-73
2022/04/19 12:39:31;;;;;;;7.97;6.40;;;;;;;;;;5072278;28;20044;-73
2022/04/19 12:42:03;;;;;;;7.88;7.18;;;;;;;;;;5072367;28;20022;-73
2022/04/19 12:44:29;;;;;;;8.10;7.05;;;;;;;;;;5072323;28;20071;-73
2022/04/19 12:46:55;;;;;;;5.80;5.30;;;;;;;;;;5071231;28;20413;-73
2022/04/19 12:49:29;;;;;;;9.90;8.77;;;;;;;;;;5072409;28;20032;-73
2022/04/19 12:52:04;;;;;;;8.63;7.68;;;;;;;;;;5071218;28;20063;-72
2022/04/19 12:54:30;;;;;;;9.98;7.53;;;;;;;;;;5071074;28;20060;-73
2022/04/19 12:57:14;;;;;;;10.18;9.13;;;;;;;;;;5071091;28;20172;-73
2022/04/19 12:59:43;;;;;;;7.05;6.38;;;;;;;;;;5071061;28;20032;-73
2022/04/19 13:02:08;;;;;;;8.73;8.00;;;;;;;;;;5072293;28;20058;-73
2022/04/19 13:04:34;;;;;;;8.63;7.68;;;;;;;;;;5072152;28;20540;-73
2022/04/19 13:12:28;;;;;;;25.48;16.10;;;;;;;;;;5072196;28;20028;-73
2022/04/19 13:14:55;;;;;;;7.07;6.43;;;;;;;;;;5071938;28;20400;-73
2022/04/19 13:17:22;;;;;;;6.15;5.55;;;;;;;;;;5072046;28;20411;-73
2022/04/19 13:19:47;;;;;;;7.65;7.07;;;;;;;;;;5072044;28;20024;-73
2022/04/19 13:22:13;;;;;;;6.15;5.00;;;;;;;;;;5072255;28;20387;-73
2022/04/19 13:24:39;;;;;;;9.57;8.65;;;;;;;;;;5072015;28;20118;-73
2022/04/19 13:27:08;;;;;;;17.58;15.43;;;;;;;;;;5072053;28;20029;-73
2022/04/19 13:29:34;;;;;;;6.72;6.13;;;;;;;;;;5072339;28;20013;-73
2022/04/19 13:32:00;;;;;;;5.68;5.18;;;;;;;;;;5071883;28;20086;-73
2022/04/19 13:34:26;;;;;;;7.78;5.88;;;;;;;;;;5070744;28;20029;-73
2022/04/19 13:36:52;;;;;;;6.93;6.30;;;;;;;;;;5071966;28;20029;-73
2022/04/19 13:39:17;;;;;;;7.30;5.18;;;;;;;;;;5070726;28;20020;-73
2022/04/19 13:41:43;;;;;;;12.80;10.27;;;;;;;;;;5071963;28;20506;-73
2022/04/19 13:44:11;;;;;;;9.57;8.20;;;;;;;;;;5071875;28;20104;-73
2022/04/19 13:46:37;;;;;;;12.93;11.70;;;;;;;;;;5071958;28;20150;-73
2022/04/19 13:49:02;;;;;;;10.50;9.60;;;;;;;;;;5071913;28;20030;-73
2022/04/19 13:51:28;;;;;;;24.17;21.75;;;;;;;;;;5072743;28;20075;-72
2022/04/19 13:53:53;;;;;;;19.45;17.58;;;;;;;;;;5074817;28;20403;-72
2022/04/19 13:56:19;;;;;;;8.63;6.32;;;;;;;;;;5074228;28;20047;-73
2022/04/19 13:58:44;;;;;;;7.80;6.97;;;;;;;;;;5075436;28;20513;-73
2022/04/19 14:01:09;;;;;;;7.35;6.55;;;;;;;;;;5075470;28;20052;-73
2022/04/19 14:03:35;;;;;;;12.65;10.95;;;;;;;;;;5074141;28;20532;-73
2022/04/19 14:06:00;;;;;;;65.78;45.92;;;;;;;;;;5075136;28;20119;-73
2022/04/19 14:08:26;;;;;;;52.05;36.38;;;;;;;;;;5074005;28;20125;-73
2022/04/19 14:10:51;;;;;;;180.73;114.22;;;;;;;;;;5075530;28;20380;-72
2022/04/19 14:13:17;;;;;;;193.45;131.75;;;;;;;;;;5075209;28;20040;-72
2022/04/19 14:15:43;;;;;;;82.22;65.35;;;;;;;;;;5075053;28;20522;-72
2022/04/19 14:18:08;;;;;;;36.92;29.13;;;;;;;;;;5075656;28;20037;-73
2022/04/19 14:20:33;;;;;;;15.40;13.82;;;;;;;;;;5075098;28;20377;-73
2022/04/19 14:22:59;;;;;;;35.42;27.00;;;;;;;;;;5075021;28;20029;-73
2022/04/19 14:25:26;;;;;;;52.55;41.75;;;;;;;;;;5074082;28;20024;-73
2022/04/19 14:27:52;;;;;;;27.52;23.75;;;;;;;;;;5056982;28;20012;-73
2022/04/19 14:33:16;;;;;;;14.75;13.30;;;;;;;;;;5074906;28;20024;-73
2022/04/19 14:35:49;;;;;;;9.35;8.52;;;;;;;;;;5073693;28;20461;-72
2022/04/19 14:38:16;;;;;;;10.73;9.73;;;;;;;;;;5075341;28;20025;-73
2022/04/19 14:40:41;;;;;;;4.10;3.80;;;;;;;;;;5075023;28;20031;-72
2022/04/19 14:43:07;;;;;;;4.65;4.25;;;;;;;;;;5074678;28;20032;-72
2022/04/19 14:45:32;;;;;;;6.70;6.10;;;;;;;;;;5074634;28;20468;-72
2022/04/19 14:47:57;;;;;;;290.92;226.60;;;;;;;;;;5074577;28;20063;-73
2022/04/19 14:50:22;;;;;;;23.10;20.70;;;;;;;;;;5074473;28;20067;-73
2022/04/19 14:52:48;;;;;;;208.05;187.32;;;;;;;;;;5074581;28;20502;-73
2022/04/19 14:55:15;;;;;;;21.73;19.88;;;;;;;;;;5074517;28;20020;-73
2022/04/19 14:57:43;;;;;;;11.15;10.10;;;;;;;;;;5074452;28;20036;-73
2022/04/19 15:00:09;;;;;;;17.75;13.25;;;;;;;;;;5074342;28;20028;-73
2022/04/19 15:02:34;;;;;;;13.93;12.48;;;;;;;;;;5074235;28;20032;-73
2022/04/19 15:05:04;;;;;;;7.15;6.47;;;;;;;;;;5074171;28;20024;-73
2022/04/19 15:07:33;;;;;;;13.63;10.27;;;;;;;;;;5074281;28;20067;-73
2022/04/19 15:09:59;;;;;;;11.60;10.48;;;;;;;;;;5074228;28;20467;-73
2022/04/19 15:12:26;;;;;;;12.02;8.82;;;;;;;;;;5074405;28;20087;-72
2022/04/19 15:14:52;;;;;;;36.95;25.02;;;;;;;;;;5073928;28;20186;-72
2022/04/19 15:17:17;;;;;;;214.55;101.75;;;;;;;;;;5073951;28;20082;-73
2022/04/19 15:19:43;;;;;;;148.25;74.60;;;;;;;;;;5072758;28;20036;-73
2022/04/19 15:22:09;;;;;;;254.25;99.53;;;;;;;;;;5073944;28;20095;-73
2022/04/19 15:24:35;;;;;;;315.17;127.70;;;;;;;;;;5073777;28;20483;-73
2022/04/19 15:27:00;;;;;;;240.70;98.43;;;;;;;;;;5073856;28;20019;-73
2022/04/19 15:29:29;;;;;;;163.63;75.45;;;;;;;;;;5073840;28;20444;-73
2022/04/19 15:31:54;;;;;;;85.60;43.55;;;;;;;;;;5073799;28;20009;-73
2022/04/19 15:34:20;;;;;;;80.72;46.35;;;;;;;;;;5055695;28;20531;-73
2022/04/19 15:36:45;;;;;;;92.25;53.15;;;;;;;;;;5072415;28;20384;-73
2022/04/19 15:39:11;;;;;;;42.55;26.13;;;;;;;;;;5072225;28;20024;-73
2022/04/19 15:41:36;;;;;;;49.28;33.15;;;;;;;;;;5073569;28;20029;-73